Time;durP1;ratioP1;P1;durP2;ratioP2;P2;SDS_P1;SDS_P2;PMS_P1;PMS_P2;Temp;Humidity;BMP_temperature;BMP_pressure;BME280_temperature;BME280_humidity;BME280_pressure;Samples;Min_cycle;Max_cycle;Signal;HPM_P1;HPM_P2
2022/10/22 00:00:14;;;;;;;3.90;3.53;;;22.70;99.90;;;;;;6014992;29;89129;-65
2022/10/22 00:03:16;;;;;;;3.80;3.50;;;22.70;99.90;;;;;;6023514;29;87979;-65
2022/10/22 00:06:20;;;;;;;3.90;3.60;;;22.70;99.90;;;;;;6027557;29;90491;-65
2022/10/22 00:09:22;;;;;;;3.53;3.22;;;22.70;99.90;;;;;;6026506;28;89175;-65
2022/10/22 00:12:24;;;;;;;3.67;3.33;;;22.70;99.90;;;;;;6036357;28;90372;-65
2022/10/22 00:15:26;;;;;;;3.30;3.00;;;22.70;99.90;;;;;;6025804;29;89076;-65
2022/10/22 00:18:28;;;;;;;3.40;3.10;;;22.70;99.90;;;;;;6025435;29;89119;-65
2022/10/22 00:21:32;;;;;;;3.80;3.50;;;22.70;99.90;;;;;;6017361;29;89005;-65
2022/10/22 00:24:34;;;;;;;3.25;2.95;;;22.70;99.90;;;;;;6015972;29;89175;-65
2022/10/22 00:27:36;;;;;;;3.45;3.15;;;22.70;99.90;;;;;;6016216;29;88455;-65
2022/10/22 00:30:38;;;;;;;3.70;3.40;;;22.70;99.90;;;;;;6015580;29;89320;-65
2022/10/22 00:33:40;;;;;;;3.60;3.30;;;22.70;99.90;;;;;;6014528;29;89075;-65
2022/10/22 00:36:44;;;;;;;3.40;3.10;;;22.70;99.90;;;;;;6015014;29;90009;-64
2022/10/22 00:39:46;;;;;;;3.70;3.40;;;22.70;99.90;;;;;;6021851;28;89125;-65
2022/10/22 00:42:48;;;;;;;3.83;3.50;;;22.70;99.90;;;;;;6023343;29;87973;-65
2022/10/22 00:45:50;;;;;;;3.63;3.33;;;22.70;99.90;;;;;;6020779;28;89076;-65
2022/10/22 00:48:53;;;;;;;3.10;2.90;;;22.70;99.90;;;;;;6033331;29;88114;-65
2022/10/22 00:51:56;;;;;;;5.57;4.15;;;22.70;99.90;;;;;;6029831;29;89192;-65
2022/10/22 00:54:59;;;;;;;3.58;3.28;;;22.70;99.90;;;;;;6016842;29;89189;-65
2022/10/22 00:58:02;;;;;;;3.38;3.08;;;22.70;99.90;;;;;;6016677;29;88734;-65
2022/10/22 01:01:06;;;;;;;3.58;3.28;;;22.70;99.90;;;;;;6013597;29;89514;-65
2022/10/22 01:04:08;;;;;;;4.03;3.40;;;22.70;99.90;;;;;;6025555;29;87982;-65
2022/10/22 01:07:17;;;;;;;3.72;3.42;;;22.70;99.90;;;;;;6015305;29;89075;-65
2022/10/22 01:10:34;;;;;;;3.47;3.10;;;22.60;99.90;;;;;;6008304;29;89130;-65
2022/10/22 01:13:48;;;;;;;3.20;2.90;;;22.60;99.90;;;;;;6020680;29;89104;-65
2022/10/22 01:16:59;;;;;;;3.78;3.38;;;22.60;99.90;;;;;;6018772;29;89408;-65
2022/10/22 01:20:09;;;;;;;3.47;3.13;;;22.60;99.90;;;;;;6021445;29;89123;-65
2022/10/22 01:23:29;;;;;;;3.50;3.20;;;22.60;99.90;;;;;;6027648;29;89830;-65
2022/10/22 01:26:43;;;;;;;3.45;3.15;;;22.60;99.90;;;;;;6014727;29;89139;-65
2022/10/22 01:29:50;;;;;;;3.60;3.30;;;22.60;99.90;;;;;;6016011;29;88359;-65
2022/10/22 01:32:56;;;;;;;3.50;3.20;;;22.60;99.90;;;;;;6014539;29;88194;-65
2022/10/22 01:35:59;;;;;;;3.33;3.05;;;22.60;99.90;;;;;;6012662;29;89079;-65
2022/10/22 01:39:03;;;;;;;3.22;3.03;;;22.60;99.90;;;;;;6013831;29;90044;-65
2022/10/22 01:42:05;;;;;;;3.58;3.28;;;22.60;99.90;;;;;;6014635;29;89368;-65
2022/10/22 01:45:13;;;;;;;3.35;3.05;;;22.60;99.90;;;;;;6014696;29;88930;-65
2022/10/22 01:48:28;;;;;;;3.40;3.10;;;22.60;99.90;;;;;;6018412;29;89090;-65
2022/10/22 01:51:44;;;;;;;3.40;3.10;;;22.60;99.90;;;;;;6014069;29;88144;-65
2022/10/22 01:54:53;;;;;;;3.80;3.50;;;22.60;99.90;;;;;;6015704;29;89263;-65
2022/10/22 01:58:05;;;;;;;3.90;3.60;;;22.60;99.90;;;;;;6024081;29;89108;-65
2022/10/22 02:01:17;;;;;;;3.50;3.17;;;22.60;99.90;;;;;;6012676;29;88386;-65
2022/10/22 02:04:23;;;;;;;3.40;3.10;;;22.60;99.90;;;;;;6015959;29;89158;-65
2022/10/22 02:07:29;;;;;;;3.92;3.53;;;22.60;99.90;;;;;;6014738;29;89040;-65
2022/10/22 02:10:32;;;;;;;3.72;3.42;;;22.60;99.90;;;;;;6013378;29;88976;-65
2022/10/22 02:13:38;;;;;;;3.38;3.08;;;22.60;99.90;;;;;;6025044;29;89036;-66
2022/10/22 02:16:44;;;;;;;3.28;3.08;;;22.60;99.90;;;;;;6026296;29;88990;-65
2022/10/22 02:19:52;;;;;;;3.78;3.47;;;22.60;99.90;;;;;;6030128;29;89085;-66
2022/10/22 02:22:55;;;;;;;3.88;3.47;;;22.50;99.90;;;;;;6013547;29;89090;-65
2022/10/22 02:26:03;;;;;;;3.70;3.40;;;22.60;99.90;;;;;;6014913;29;89308;-66
2022/10/22 02:29:11;;;;;;;3.90;3.60;;;22.50;99.90;;;;;;6002526;29;88252;-65
2022/10/22 02:32:19;;;;;;;4.00;3.60;;;22.50;99.90;;;;;;6020970;29;89252;-65
2022/10/22 02:35:24;;;;;;;3.85;3.53;;;22.50;99.90;;;;;;6017528;29;89542;-66
2022/10/22 02:38:28;;;;;;;3.90;3.60;;;22.50;99.90;;;;;;6013007;29;87996;-65
2022/10/22 02:41:30;;;;;;;3.90;3.60;;;22.50;99.90;;;;;;6012149;29;90286;-66
2022/10/22 02:44:32;;;;;;;4.05;3.75;;;22.50;99.90;;;;;;6013336;29;89207;-65
2022/10/22 02:47:36;;;;;;;3.83;3.53;;;22.60;99.90;;;;;;6017638;29;89681;-65
2022/10/22 02:50:38;;;;;;;4.00;3.70;;;22.50;99.90;;;;;;6023586;29;89091;-66
2022/10/22 02:53:40;;;;;;;4.45;4.05;;;22.50;99.90;;;;;;6011104;29;89470;-65
2022/10/22 02:56:42;;;;;;;4.30;3.90;;;22.50;99.90;;;;;;6022841;29;89408;-65
2022/10/22 02:59:44;;;;;;;4.28;3.88;;;22.50;99.90;;;;;;6013517;29;89346;-66
2022/10/22 03:02:48;;;;;;;4.47;4.07;;;22.50;99.90;;;;;;6013776;29;88735;-65
2022/10/22 03:05:51;;;;;;;4.68;4.22;;;22.50;99.90;;;;;;6014028;29;89005;-66
2022/10/22 03:08:53;;;;;;;4.68;4.28;;;22.50;99.90;;;;;;6012547;29;89226;-65
2022/10/22 03:11:55;;;;;;;4.50;4.10;;;22.50;99.90;;;;;;6014306;29;88734;-65
2022/10/22 03:14:57;;;;;;;5.28;4.78;;;22.50;99.90;;;;;;6013448;28;89097;-65
2022/10/22 03:18:00;;;;;;;6.30;4.88;;;22.50;99.90;;;;;;6012633;29;89087;-65
2022/10/22 03:21:08;;;;;;;5.07;4.57;;;22.50;99.90;;;;;;6013794;29;89077;-66
2022/10/22 03:24:13;;;;;;;4.82;4.43;;;22.50;99.90;;;;;;6014648;29;89130;-65
2022/10/22 03:27:18;;;;;;;5.10;4.47;;;22.50;99.90;;;;;;6012732;29;89152;-65
2022/10/22 03:30:20;;;;;;;5.35;4.85;;;22.50;99.90;;;;;;6013254;29;89119;-65
2022/10/22 03:33:23;;;;;;;5.68;5.18;;;22.50;99.90;;;;;;6013198;29;88755;-65
2022/10/22 03:36:26;;;;;;;5.15;4.65;;;22.50;99.90;;;;;;6012586;29;89089;-65
2022/10/22 03:39:31;;;;;;;5.20;4.70;;;22.50;99.90;;;;;;6012767;29;89108;-65
2022/10/22 03:42:33;;;;;;;5.35;4.85;;;22.50;99.90;;;;;;6015418;29;90166;-65
2022/10/22 03:45:35;;;;;;;6.22;5.15;;;22.50;99.90;;;;;;6016269;29;89320;-65
2022/10/22 03:48:38;;;;;;;5.70;5.20;;;22.50;99.90;;;;;;6023436;29;89118;-65
2022/10/22 03:51:40;;;;;;;6.00;5.40;;;22.60;99.90;;;;;;6016190;29;89122;-65
2022/10/22 03:54:43;;;;;;;5.85;5.25;;;22.50;99.90;;;;;;6016845;29;89043;-65
2022/10/22 03:57:45;;;;;;;5.75;5.15;;;22.60;99.90;;;;;;6027471;29;89453;-65
2022/10/22 04:00:47;;;;;;;5.53;5.03;;;22.50;99.90;;;;;;6016387;29;87952;-65
2022/10/22 04:03:50;;;;;;;5.50;5.00;;;22.60;99.90;;;;;;6017340;29;88336;-65
2022/10/22 04:06:52;;;;;;;5.65;5.15;;;22.60;99.90;;;;;;6015658;29;90105;-65
2022/10/22 04:09:54;;;;;;;5.90;5.40;;;22.60;99.90;;;;;;6015794;29;89096;-65
2022/10/22 04:12:57;;;;;;;6.88;6.18;;;22.60;99.90;;;;;;6017563;29;90016;-66
2022/10/22 04:16:07;;;;;;;6.50;5.82;;;22.60;99.90;;;;;;6023147;29;89130;-65
2022/10/22 04:19:11;;;;;;;5.60;5.10;;;22.60;99.90;;;;;;6027502;29;89083;-65
2022/10/22 04:22:13;;;;;;;5.97;5.38;;;22.60;99.90;;;;;;6022790;29;89277;-65
2022/10/22 04:25:15;;;;;;;5.93;5.43;;;22.60;99.90;;;;;;6029666;28;89085;-66
2022/10/22 04:28:17;;;;;;;6.22;5.68;;;22.60;99.90;;;;;;6016073;29;88038;-66
2022/10/22 04:31:22;;;;;;;5.82;5.30;;;22.60;99.90;;;;;;6027313;29;88049;-65
2022/10/22 04:34:27;;;;;;;6.05;5.43;;;22.60;99.90;;;;;;6017142;29;88401;-65
2022/10/22 04:37:31;;;;;;;6.50;5.90;;;22.60;99.90;;;;;;6015681;29;87927;-65
2022/10/22 04:40:33;;;;;;;6.10;5.50;;;22.60;99.90;;;;;;6014528;29;89148;-65
2022/10/22 04:43:35;;;;;;;6.80;6.10;;;22.60;99.90;;;;;;6015027;29;90087;-65
2022/10/22 04:46:37;;;;;;;6.28;5.68;;;22.60;99.90;;;;;;6024594;28;90437;-65
2022/10/22 04:49:41;;;;;;;6.72;6.13;;;22.60;99.90;;;;;;6015347;29;89410;-65
2022/10/22 04:52:43;;;;;;;6.45;5.85;;;22.60;99.90;;;;;;6015648;29;89255;-65
2022/10/22 04:55:45;;;;;;;6.40;5.80;;;22.60;99.90;;;;;;6016052;29;87930;-65
2022/10/22 04:58:48;;;;;;;6.80;6.20;;;22.50;99.90;;;;;;6015728;29;89163;-66
2022/10/22 05:01:50;;;;;;;6.45;5.85;;;22.60;99.90;;;;;;6015602;29;89167;-66
2022/10/22 05:04:54;;;;;;;7.25;6.55;;;22.60;99.90;;;;;;6015692;29;88339;-65
2022/10/22 05:07:56;;;;;;;7.25;6.55;;;22.60;99.90;;;;;;6014580;29;89089;-66
2022/10/22 05:10:58;;;;;;;6.80;6.10;;;22.50;99.90;;;;;;6016661;29;89109;-66
2022/10/22 05:14:01;;;;;;;6.57;5.97;;;22.60;99.90;;;;;;6020830;29;89898;-65
2022/10/22 05:17:03;;;;;;;6.75;6.15;;;22.50;99.90;;;;;;6015905;29;88486;-65
2022/10/22 05:20:08;;;;;;;6.63;6.03;;;22.50;99.90;;;;;;6015750;29;89099;-66
2022/10/22 05:23:10;;;;;;;6.90;6.30;;;22.60;99.90;;;;;;6019835;29;88405;-66
2022/10/22 05:26:15;;;;;;;7.22;6.53;;;22.50;99.90;;;;;;6020030;28;89272;-66
2022/10/22 05:29:17;;;;;;;6.80;6.20;;;22.50;99.90;;;;;;6015403;29;89148;-66
2022/10/22 05:32:19;;;;;;;7.80;7.00;;;22.50;99.90;;;;;;6014443;29;89185;-66
2022/10/22 05:35:22;;;;;;;6.78;6.05;;;22.60;99.90;;;;;;6015522;29;87439;-66
2022/10/22 05:38:24;;;;;;;6.55;5.95;;;22.60;99.90;;;;;;6014036;29;89139;-65
2022/10/22 05:41:28;;;;;;;6.95;6.35;;;22.60;99.90;;;;;;6014858;29;89022;-66
2022/10/22 05:44:30;;;;;;;6.95;6.35;;;22.50;99.90;;;;;;6012888;29;90269;-65
2022/10/22 05:47:32;;;;;;;6.75;6.15;;;22.60;99.90;;;;;;6019191;28;88266;-66
2022/10/22 05:50:37;;;;;;;6.78;6.18;;;22.60;99.90;;;;;;6014111;29;89403;-65
2022/10/22 05:53:40;;;;;;;7.20;6.50;;;22.60;99.90;;;;;;6014240;29;89219;-66
2022/10/22 05:56:42;;;;;;;7.43;6.65;;;22.60;99.90;;;;;;6014451;29;89019;-66
2022/10/22 05:59:44;;;;;;;6.80;6.20;;;22.60;99.90;;;;;;6015283;29;89106;-66
2022/10/22 06:02:50;;;;;;;6.97;6.35;;;22.60;99.90;;;;;;6012684;29;89000;-66
2022/10/22 06:05:53;;;;;;;7.30;6.60;;;22.60;99.90;;;;;;6014799;29;88379;-66
2022/10/22 06:08:59;;;;;;;7.13;6.43;;;22.60;99.90;;;;;;6012456;29;88018;-65
2022/10/22 06:12:02;;;;;;;6.97;6.35;;;22.60;99.90;;;;;;6013718;29;89110;-66
2022/10/22 06:15:04;;;;;;;9.50;7.15;;;22.60;99.90;;;;;;6010508;29;89103;-65
2022/10/22 06:18:06;;;;;;;6.82;6.22;;;22.70;99.90;;;;;;6013978;29;89433;-65
2022/10/22 06:21:11;;;;;;;6.53;5.93;;;22.60;99.90;;;;;;6014515;29;89125;-66
2022/10/22 06:24:14;;;;;;;7.22;6.50;;;22.70;99.90;;;;;;6024332;29;89072;-65
2022/10/22 06:27:16;;;;;;;6.65;6.05;;;22.60;99.90;;;;;;6014498;29;89456;-66
2022/10/22 06:30:18;;;;;;;6.93;6.30;;;22.60;99.90;;;;;;6014951;29;89126;-65
2022/10/22 06:33:20;;;;;;;7.22;6.53;;;22.70;99.90;;;;;;6014382;29;89932;-65
2022/10/22 06:36:24;;;;;;;6.78;6.18;;;22.70;99.90;;;;;;6014966;29;88768;-65
2022/10/22 06:39:26;;;;;;;6.80;6.10;;;22.70;99.90;;;;;;6013211;29;89085;-65
2022/10/22 06:42:28;;;;;;;6.53;5.93;;;22.70;99.90;;;;;;6013604;29;89023;-66
2022/10/22 06:45:30;;;;;;;6.93;6.25;;;22.60;99.90;;;;;;6013521;29;90019;-66
2022/10/22 06:48:32;;;;;;;6.45;5.85;;;22.70;99.90;;;;;;6013415;29;89469;-66
2022/10/22 06:51:35;;;;;;;7.00;6.25;;;22.70;99.90;;;;;;6014761;29;89096;-65
2022/10/22 06:54:37;;;;;;;6.35;5.85;;;22.70;99.90;;;;;;6013382;29;89132;-66
2022/10/22 06:57:39;;;;;;;6.40;5.82;;;22.70;99.90;;;;;;6013308;29;89088;-66
2022/10/22 07:00:41;;;;;;;6.80;6.20;;;22.70;99.90;;;;;;6012793;29;89404;-65
2022/10/22 07:03:43;;;;;;;6.50;5.90;;;22.70;99.90;;;;;;6012244;29;90603;-65
2022/10/22 07:06:47;;;;;;;6.78;6.18;;;22.70;99.90;;;;;;6013938;29;87177;-66
2022/10/22 07:09:49;;;;;;;6.70;6.07;;;22.70;99.90;;;;;;6013479;29;89086;-65
2022/10/22 07:12:51;;;;;;;6.45;5.88;;;22.70;99.90;;;;;;6023933;29;89213;-66
2022/10/22 07:15:54;;;;;;;6.65;6.05;;;22.70;99.90;;;;;;6016157;29;90083;-65
2022/10/22 07:18:56;;;;;;;6.50;5.90;;;22.70;99.90;;;;;;6016539;29;89031;-65
2022/10/22 07:22:00;;;;;;;6.50;5.90;;;22.70;99.90;;;;;;6018302;29;88227;-66
2022/10/22 07:25:02;;;;;;;7.00;6.30;;;22.70;99.90;;;;;;6027091;29;89144;-66
2022/10/22 07:28:04;;;;;;;6.60;6.00;;;22.70;99.90;;;;;;6016776;29;89371;-66
2022/10/22 07:31:06;;;;;;;6.63;6.03;;;22.70;99.90;;;;;;6016332;29;88001;-65
2022/10/22 07:34:09;;;;;;;6.63;6.03;;;22.70;99.90;;;;;;6016984;29;89495;-66
2022/10/22 07:37:12;;;;;;;6.50;5.90;;;22.70;99.90;;;;;;6016814;29;88293;-65
2022/10/22 07:40:14;;;;;;;6.65;6.05;;;22.70;99.90;;;;;;6017463;29;88013;-66
2022/10/22 07:43:16;;;;;;;6.45;5.85;;;22.70;99.90;;;;;;6016864;29;89133;-65
2022/10/22 07:46:18;;;;;;;7.03;5.82;;;22.70;99.90;;;;;;6020422;29;90068;-65
2022/10/22 07:49:20;;;;;;;6.25;5.65;;;22.70;99.90;;;;;;6017895;29;89479;-65
2022/10/22 07:52:24;;;;;;;6.22;5.68;;;22.70;99.90;;;;;;6014850;29;89120;-66
2022/10/22 07:55:26;;;;;;;6.70;6.10;;;22.70;99.90;;;;;;6016793;29;89136;-65
2022/10/22 07:58:28;;;;;;;6.55;5.95;;;22.70;99.90;;;;;;6015990;29;89098;-65
2022/10/22 08:01:30;;;;;;;6.68;6.07;;;22.70;99.90;;;;;;6016144;29;89096;-65
2022/10/22 08:04:32;;;;;;;6.72;6.07;;;22.70;99.90;;;;;;6016895;29;89069;-66
2022/10/22 08:07:36;;;;;;;6.35;5.75;;;22.80;99.90;;;;;;6015459;29;88233;-65
2022/10/22 08:10:38;;;;;;;6.60;5.90;;;22.80;99.90;;;;;;6016940;29;89084;-65
2022/10/22 08:13:40;;;;;;;5.90;5.40;;;22.70;99.90;;;;;;6017951;29;89497;-65
2022/10/22 08:16:42;;;;;;;6.60;5.95;;;22.70;99.90;;;;;;6007641;29;90730;-65
2022/10/22 08:19:44;;;;;;;6.30;5.70;;;22.70;99.90;;;;;;6016757;29;89011;-66
2022/10/22 08:22:47;;;;;;;6.20;5.60;;;22.80;99.90;;;;;;6017749;29;89479;-65
2022/10/22 08:25:49;;;;;;;6.35;5.75;;;22.80;99.90;;;;;;6024821;28;88034;-66
2022/10/22 08:28:51;;;;;;;5.78;5.28;;;22.80;99.90;;;;;;6015935;29;89124;-65
2022/10/22 08:31:54;;;;;;;6.40;5.80;;;22.80;99.90;;;;;;6004832;29;87919;-65
2022/10/22 08:34:56;;;;;;;5.95;5.45;;;22.80;99.90;;;;;;6014565;29;88118;-65
2022/10/22 08:37:59;;;;;;;6.03;5.53;;;22.70;99.90;;;;;;6014934;29;87256;-65
2022/10/22 08:41:09;;;;;;;5.97;5.40;;;22.70;99.90;;;;;;6016503;29;88003;-66
2022/10/22 08:44:31;;;;;;;5.70;5.20;;;22.70;99.90;;;;;;6015260;29;89130;-65
2022/10/22 08:47:52;;;;;;;5.95;5.40;;;22.80;99.90;;;;;;6020791;28;88981;-65
2022/10/22 08:50:57;;;;;;;6.30;5.80;;;22.80;99.90;;;;;;6015140;29;89116;-65
2022/10/22 08:54:13;;;;;;;5.63;5.13;;;22.80;99.90;;;;;;6016033;29;89490;-65
2022/10/22 08:57:26;;;;;;;6.00;5.50;;;22.80;99.90;;;;;;6015137;29;89461;-65
2022/10/22 09:00:36;;;;;;;5.75;5.25;;;22.80;99.90;;;;;;6015735;29;88041;-65
2022/10/22 09:03:47;;;;;;;5.55;5.05;;;22.80;99.90;;;;;;6014041;29;89602;-65
2022/10/22 09:06:49;;;;;;;5.70;5.20;;;22.80;99.90;;;;;;6015751;29;89065;-65
2022/10/22 09:09:57;;;;;;;5.55;5.05;;;22.80;99.90;;;;;;6015147;29;87275;-65
2022/10/22 09:12:59;;;;;;;6.32;5.75;;;22.80;99.90;;;;;;6025986;29;89132;-66
2022/10/22 09:16:11;;;;;;;6.30;5.70;;;22.80;99.90;;;;;;6015252;29;89164;-65
2022/10/22 09:19:20;;;;;;;5.90;5.40;;;22.80;99.90;;;;;;6014682;29;90032;-65
2022/10/22 09:22:33;;;;;;;6.20;5.60;;;22.80;99.90;;;;;;6015526;29;88089;-66
2022/10/22 09:25:37;;;;;;;5.82;5.32;;;22.80;99.90;;;;;;6015424;29;89377;-65
2022/10/22 09:28:39;;;;;;;6.10;5.47;;;22.70;99.90;;;;;;6014940;29;89150;-65
2022/10/22 09:31:41;;;;;;;5.97;5.47;;;22.80;99.90;;;;;;6014331;29;89098;-65
2022/10/22 09:34:44;;;;;;;5.70;5.10;;;22.70;99.90;;;;;;6012642;29;89508;-65
2022/10/22 09:37:49;;;;;;;5.53;5.03;;;22.80;99.90;;;;;;6014661;29;88989;-65
2022/10/22 09:40:55;;;;;;;5.65;5.15;;;22.80;99.90;;;;;;6015112;29;87250;-65
2022/10/22 09:43:58;;;;;;;5.95;5.40;;;22.80;99.90;;;;;;6013883;29;89316;-65
2022/10/22 09:47:00;;;;;;;6.15;5.55;;;22.80;99.90;;;;;;6023536;29;88038;-65
2022/10/22 09:50:12;;;;;;;5.72;5.10;;;22.80;99.90;;;;;;6014983;29;90387;-65
2022/10/22 09:53:18;;;;;;;5.43;4.93;;;22.80;99.90;;;;;;6004113;29;89055;-65
2022/10/22 09:56:25;;;;;;;5.03;4.63;;;22.80;99.90;;;;;;6013998;29;89841;-65
2022/10/22 09:59:30;;;;;;;5.57;5.07;;;22.80;99.90;;;;;;6014163;29;89131;-65
2022/10/22 10:02:32;;;;;;;5.45;4.95;;;22.80;99.90;;;;;;6014607;29;89205;-65
2022/10/22 10:05:36;;;;;;;5.55;4.95;;;22.70;99.90;;;;;;6015044;29;89069;-65
2022/10/22 10:08:38;;;;;;;5.38;4.88;;;22.80;99.90;;;;;;6013141;29;89209;-65
2022/10/22 10:11:46;;;;;;;5.03;4.63;;;22.80;99.90;;;;;;6014564;29;87384;-65
2022/10/22 10:14:56;;;;;;;5.57;5.07;;;22.80;99.90;;;;;;6005504;29;89254;-65
2022/10/22 10:18:12;;;;;;;5.43;4.93;;;22.80;99.90;;;;;;6013398;29;89416;-65
2022/10/22 10:21:26;;;;;;;5.43;4.93;;;22.70;99.90;;;;;;6014000;29;90126;-66
2022/10/22 10:24:37;;;;;;;5.40;4.90;;;22.80;99.90;;;;;;6016125;29;89182;-65
2022/10/22 10:27:44;;;;;;;5.07;4.57;;;22.80;99.90;;;;;;6013869;29;89198;-65
2022/10/22 10:30:53;;;;;;;5.65;5.15;;;22.80;99.90;;;;;;6013412;29;89129;-65
2022/10/22 10:34:04;;;;;;;5.93;5.30;;;22.80;99.90;;;;;;6013977;29;89164;-65
2022/10/22 10:37:19;;;;;;;5.05;4.60;;;22.80;99.90;;;;;;6013232;29;89198;-65
2022/10/22 10:40:30;;;;;;;5.32;4.82;;;22.80;99.90;;;;;;6014098;29;89033;-65
2022/10/22 10:43:42;;;;;;;5.20;4.70;;;22.80;99.90;;;;;;6013235;29;88420;-65
2022/10/22 10:46:49;;;;;;;5.15;4.65;;;22.80;99.90;;;;;;6021211;29;87991;-65
2022/10/22 10:49:56;;;;;;;5.25;4.75;;;22.80;99.90;;;;;;6016688;29;89086;-65
2022/10/22 10:53:10;;;;;;;4.85;4.45;;;22.80;99.90;;;;;;6018074;29;90344;-66
2022/10/22 10:56:32;;;;;;;5.03;4.63;;;22.80;99.90;;;;;;6018617;29;89104;-65
2022/10/22 10:59:49;;;;;;;5.10;4.60;;;22.80;99.90;;;;;;6006153;29;89001;-65
2022/10/22 11:03:30;;;;;;;4.72;4.32;;;22.80;99.90;;;;;;6018246;29;89073;-65
2022/10/22 11:06:34;;;;;;;4.40;4.00;;;22.80;99.90;;;;;;6017885;29;89256;-65
2022/10/22 11:09:39;;;;;;;5.93;5.32;;;22.80;99.90;;;;;;6018329;29;87925;-65
2022/10/22 11:12:47;;;;;;;5.22;4.72;;;22.80;99.90;;;;;;6023597;29;88319;-65
2022/10/22 11:15:57;;;;;;;4.70;4.30;;;22.80;99.90;;;;;;6007351;29;87304;-65
2022/10/22 11:19:05;;;;;;;4.68;4.28;;;22.80;99.90;;;;;;6006725;29;89103;-65
2022/10/22 11:22:13;;;;;;;4.55;4.15;;;22.80;99.90;;;;;;6017665;29;89098;-65
2022/10/22 11:25:19;;;;;;;4.68;4.28;;;22.80;99.90;;;;;;6029060;29;90053;-65
2022/10/22 11:28:27;;;;;;;4.43;4.03;;;22.80;99.90;;;;;;6017259;29;89218;-65
2022/10/22 11:31:32;;;;;;;4.53;4.13;;;22.70;99.90;;;;;;6015781;29;89159;-65
2022/10/22 11:34:39;;;;;;;4.68;4.28;;;22.80;99.90;;;;;;6015997;29;89065;-65
2022/10/22 11:37:44;;;;;;;4.80;4.40;;;22.80;99.90;;;;;;6016850;29;89108;-65
2022/10/22 11:40:50;;;;;;;5.47;4.57;;;22.80;99.90;;;;;;6016725;29;89105;-65
2022/10/22 11:43:58;;;;;;;5.07;4.57;;;22.80;99.90;;;;;;6016544;29;89155;-65
2022/10/22 11:47:17;;;;;;;4.90;4.43;;;22.80;99.90;;;;;;6024034;28;88420;-65
2022/10/22 11:50:23;;;;;;;4.78;4.38;;;22.80;99.90;;;;;;6008258;29;89069;-65
2022/10/22 11:53:32;;;;;;;4.50;4.10;;;22.80;99.90;;;;;;6017129;29;89191;-65
2022/10/22 11:56:38;;;;;;;4.32;3.92;;;22.80;99.90;;;;;;6015398;29;90755;-65
2022/10/22 11:59:44;;;;;;;4.25;3.90;;;22.80;99.90;;;;;;6016258;29;87977;-65
2022/10/22 12:03:03;;;;;;;4.40;4.00;;;22.80;99.90;;;;;;6014505;29;87963;-65
2022/10/22 12:06:19;;;;;;;4.32;3.92;;;22.80;99.90;;;;;;6014522;29;89038;-65
2022/10/22 12:09:24;;;;;;;4.40;4.00;;;22.80;99.90;;;;;;6016144;29;89194;-65
2022/10/22 12:12:28;;;;;;;4.10;3.78;;;22.80;99.90;;;;;;6021174;29;87853;-65
2022/10/22 12:15:30;;;;;;;4.30;3.90;;;22.80;99.90;;;;;;6019365;29;89426;-65
2022/10/22 12:18:41;;;;;;;4.55;4.15;;;22.80;99.90;;;;;;6016557;29;88030;-65
2022/10/22 12:21:48;;;;;;;3.97;3.67;;;22.80;99.90;;;;;;6014249;29;89530;-65
2022/10/22 12:24:52;;;;;;;3.90;3.60;;;22.80;99.90;;;;;;6018041;29;89180;-65
2022/10/22 12:27:56;;;;;;;4.40;4.00;;;22.80;99.90;;;;;;6015652;29;90528;-65
2022/10/22 12:31:00;;;;;;;4.90;4.40;;;22.80;99.90;;;;;;6016467;29;89109;-65
2022/10/22 12:34:03;;;;;;;4.95;4.22;;;22.80;99.90;;;;;;6014441;29;89152;-65
2022/10/22 12:37:06;;;;;;;4.43;4.03;;;22.80;99.90;;;;;;6017192;29;89264;-65
2022/10/22 12:40:18;;;;;;;4.25;3.85;;;22.80;99.90;;;;;;6015369;29;89734;-65
2022/10/22 12:43:24;;;;;;;4.32;3.92;;;22.80;99.90;;;;;;6015239;29;89032;-65
2022/10/22 12:46:28;;;;;;;3.92;3.63;;;22.80;99.90;;;;;;6020866;29;89169;-65
2022/10/22 12:49:36;;;;;;;4.18;3.80;;;22.80;99.90;;;;;;6019587;29;88990;-65
2022/10/22 12:52:38;;;;;;;4.00;3.60;;;22.80;99.90;;;;;;6015362;29;89110;-65
2022/10/22 12:55:40;;;;;;;4.00;3.67;;;22.80;99.90;;;;;;6013762;29;89236;-65
2022/10/22 12:58:47;;;;;;;4.10;3.70;;;22.80;99.90;;;;;;6015186;29;90014;-65
2022/10/22 13:01:50;;;;;;;3.65;3.35;;;22.80;99.90;;;;;;6016148;29;88036;-65
2022/10/22 13:05:17;;;;;;;4.95;4.45;;;22.80;99.90;;;;;;6015253;29;89204;-65
2022/10/22 13:08:24;;;;;;;3.97;3.67;;;22.80;99.90;;;;;;6015817;29;89198;-65
2022/10/22 13:11:32;;;;;;;4.35;3.90;;;22.80;99.90;;;;;;6014609;29;89157;-65
2022/10/22 13:14:36;;;;;;;4.28;3.80;;;22.80;99.90;;;;;;6022873;29;89207;-65
2022/10/22 13:17:41;;;;;;;4.60;3.90;;;22.80;99.90;;;;;;6015462;29;89634;-65
2022/10/22 13:20:57;;;;;;;4.00;3.60;;;22.80;99.90;;;;;;6015410;29;88487;-65
2022/10/22 13:24:01;;;;;;;4.63;3.50;;;22.80;99.90;;;;;;6017992;29;89065;-65
2022/10/22 13:27:03;;;;;;;4.20;3.67;;;22.80;99.90;;;;;;6012431;29;89187;-65
2022/10/22 13:30:18;;;;;;;3.97;3.58;;;22.80;99.90;;;;;;6013636;29;88945;-65
2022/10/22 13:33:26;;;;;;;5.13;3.60;;;22.80;99.90;;;;;;6014608;29;89201;-65
2022/10/22 13:36:29;;;;;;;3.90;3.35;;;22.80;99.90;;;;;;6013298;29;88292;-65
2022/10/22 13:39:32;;;;;;;4.07;3.40;;;22.80;99.90;;;;;;6014288;29;89130;-65
2022/10/22 13:42:34;;;;;;;4.70;3.60;;;22.80;99.90;;;;;;6013859;29;89119;-65
2022/10/22 13:45:36;;;;;;;5.28;3.50;;;22.90;99.90;;;;;;6014825;29;88835;-65
2022/10/22 13:48:39;;;;;;;6.82;4.10;;;22.80;99.90;;;;;;6023158;29;89138;-65
2022/10/22 13:51:43;;;;;;;4.60;3.33;;;22.90;99.90;;;;;;6016062;29;88718;-65
2022/10/22 13:54:45;;;;;;;4.38;3.35;;;22.80;99.90;;;;;;6014925;29;89183;-65
2022/10/22 13:57:48;;;;;;;5.18;3.40;;;22.90;99.90;;;;;;6014280;29;89372;-65
2022/10/22 14:00:53;;;;;;;4.05;3.50;;;22.80;99.90;;;;;;6013474;29;90158;-65
2022/10/22 14:03:57;;;;;;;3.47;3.17;;;22.80;99.90;;;;;;6014237;29;89110;-65
2022/10/22 14:07:01;;;;;;;3.63;3.33;;;22.80;99.90;;;;;;6013886;29;89224;-65
2022/10/22 14:10:03;;;;;;;3.67;3.38;;;22.80;99.90;;;;;;6012468;29;89229;-65
2022/10/22 14:13:07;;;;;;;6.20;3.65;;;22.80;99.90;;;;;;6019985;29;89222;-65
2022/10/22 14:16:16;;;;;;;4.38;3.33;;;22.80;99.90;;;;;;6013904;29;89160;-65
2022/10/22 14:19:18;;;;;;;5.60;3.70;;;22.80;99.90;;;;;;6013724;29;89412;-65
2022/10/22 14:22:24;;;;;;;5.72;4.03;;;22.80;99.90;;;;;;6013583;29;88352;-65
2022/10/22 14:25:30;;;;;;;4.05;3.60;;;22.80;99.90;;;;;;6022966;29;88010;-65
2022/10/22 14:28:32;;;;;;;3.60;3.30;;;22.80;99.90;;;;;;6014067;29;88223;-65
2022/10/22 14:31:35;;;;;;;3.58;3.28;;;22.80;99.90;;;;;;6013304;29;90106;-65
2022/10/22 14:34:37;;;;;;;3.30;3.00;;;22.80;99.90;;;;;;6012729;29;88050;-65
2022/10/22 14:37:41;;;;;;;3.42;3.03;;;22.80;99.90;;;;;;6013989;29;89514;-65
2022/10/22 14:40:44;;;;;;;4.47;3.28;;;22.90;99.90;;;;;;6013411;29;89244;-65
2022/10/22 14:43:46;;;;;;;4.25;3.00;;;22.80;99.90;;;;;;6012575;29;88012;-65
2022/10/22 14:46:48;;;;;;;3.50;3.20;;;22.80;99.90;;;;;;6018928;29;89020;-65
2022/10/22 14:49:50;;;;;;;3.55;3.20;;;22.80;99.90;;;;;;6011543;29;89092;-65
2022/10/22 14:52:56;;;;;;;3.95;3.00;;;22.80;99.90;;;;;;6013958;29;88545;-66
2022/10/22 14:55:59;;;;;;;3.60;3.00;;;22.80;99.90;;;;;;6013534;29;89247;-65
2022/10/22 14:59:01;;;;;;;3.83;3.17;;;22.90;99.90;;;;;;6013063;29;88084;-65
2022/10/22 15:02:03;;;;;;;3.40;3.10;;;22.90;99.90;;;;;;6011424;29;90054;-65
2022/10/22 15:05:06;;;;;;;4.15;3.30;;;22.80;99.90;;;;;;6012365;29;89193;-65
2022/10/22 15:08:10;;;;;;;3.33;2.88;;;22.80;99.90;;;;;;6012521;29;89384;-65
2022/10/22 15:11:13;;;;;;;3.38;3.08;;;22.90;99.90;;;;;;6015169;29;89290;-65
2022/10/22 15:14:15;;;;;;;3.08;2.78;;;22.90;99.90;;;;;;6022950;29;87885;-65
2022/10/22 15:17:18;;;;;;;3.78;2.97;;;22.80;99.90;;;;;;6013176;29;89123;-65
2022/10/22 15:20:21;;;;;;;3.10;2.80;;;22.80;99.90;;;;;;6012613;29;88032;-65
2022/10/22 15:23:24;;;;;;;3.63;3.00;;;22.80;99.90;;;;;;6018861;29;88369;-65
2022/10/22 15:26:27;;;;;;;3.35;3.00;;;22.80;99.90;;;;;;6017702;29;87046;-65
2022/10/22 15:29:31;;;;;;;3.08;2.78;;;22.90;99.90;;;;;;6012466;29;88055;-65
2022/10/22 15:32:33;;;;;;;3.65;3.05;;;22.80;99.90;;;;;;6012856;29;90388;-65
2022/10/22 15:35:36;;;;;;;4.03;3.50;;;22.80;99.90;;;;;;6012012;29;88915;-65
2022/10/22 15:38:40;;;;;;;3.28;2.97;;;22.80;99.90;;;;;;6016628;29;87935;-65
2022/10/22 15:41:42;;;;;;;3.05;2.80;;;22.80;99.90;;;;;;6017960;29;89140;-65
2022/10/22 15:44:44;;;;;;;3.08;2.78;;;22.90;99.90;;;;;;6016774;29;89271;-65
2022/10/22 15:47:47;;;;;;;2.80;2.60;;;22.80;99.90;;;;;;6022866;28;89191;-65
2022/10/22 15:50:49;;;;;;;3.83;3.00;;;22.80;99.90;;;;;;6016652;29;89159;-65
2022/10/22 15:53:53;;;;;;;3.30;3.00;;;22.80;99.90;;;;;;6016604;29;88574;-65
2022/10/22 15:56:56;;;;;;;3.17;2.78;;;22.80;99.90;;;;;;6016250;29;89087;-65
2022/10/22 15:59:58;;;;;;;3.22;2.92;;;22.80;99.90;;;;;;6016268;29;89320;-65
2022/10/22 16:03:00;;;;;;;2.80;2.60;;;22.80;99.90;;;;;;6016624;29;89407;-65